sensor_id;sensor_type;location;lat;lon;timestamp;pressure;altitude;pressure_sealevel;temperature;humidity
46690;BME280;32423;45.398;10.874;2023-01-31T00:02:21;101130.53;;;6.35;54.43
46690;BME280;32423;45.398;10.874;2023-01-31T00:05:16;101130.13;;;6.08;54.73
46690;BME280;32423;45.398;10.874;2023-01-31T00:08:10;101118.81;;;5.80;55.05
46690;BME280;32423;45.398;10.874;2023-01-31T00:11:04;101124.22;;;5.80;56.59
46690;BME280;32423;45.398;10.874;2023-01-31T00:13:59;101138.81;;;5.49;56.85
46690;BME280;32423;45.398;10.874;2023-01-31T00:16:51;101126.38;;;5.83;55.41
46690;BME280;32423;45.398;10.874;2023-01-31T00:19:46;101134.50;;;5.78;54.69
46690;BME280;32423;45.398;10.874;2023-01-31T00:22:40;101137.22;;;5.33;55.79
46690;BME280;32423;45.398;10.874;2023-01-31T00:25:32;101128.31;;;4.97;57.74
46690;BME280;32423;45.398;10.874;2023-01-31T00:28:27;101131.28;;;5.15;57.29
46690;BME280;32423;45.398;10.874;2023-01-31T00:31:21;101145.03;;;5.29;56.65
46690;BME280;32423;45.398;10.874;2023-01-31T00:34:15;101148.53;;;5.65;56.73
46690;BME280;32423;45.398;10.874;2023-01-31T00:37:07;101132.25;;;6.16;54.93
46690;BME280;32423;45.398;10.874;2023-01-31T00:40:02;101145.31;;;5.38;55.53
46690;BME280;32423;45.398;10.874;2023-01-31T00:42:57;101149.34;;;5.45;56.61
46690;BME280;32423;45.398;10.874;2023-01-31T00:45:52;101157.44;;;5.25;56.15
46690;BME280;32423;45.398;10.874;2023-01-31T00:48:46;101160.13;;;5.40;54.98
46690;BME280;32423;45.398;10.874;2023-01-31T00:51:41;101165.25;;;5.27;56.61
46690;BME280;32423;45.398;10.874;2023-01-31T00:54:35;101162.31;;;5.48;56.48
46690;BME280;32423;45.398;10.874;2023-01-31T00:57:30;101176.88;;;5.37;55.85
46690;BME280;32423;45.398;10.874;2023-01-31T01:00:22;101175.50;;;5.35;56.62
46690;BME280;32423;45.398;10.874;2023-01-31T01:03:17;101174.44;;;5.61;56.18
46690;BME280;32423;45.398;10.874;2023-01-31T01:06:12;101182.78;;;5.75;55.04
46690;BME280;32423;45.398;10.874;2023-01-31T01:09:07;101181.69;;;5.81;55.32
46690;BME280;32423;45.398;10.874;2023-01-31T01:12:01;101184.66;;;5.44;56.39
46690;BME280;32423;45.398;10.874;2023-01-31T01:14:53;101199.69;;;4.89;57.46
46690;BME280;32423;45.398;10.874;2023-01-31T01:17:49;101185.91;;;4.76;58.19
46690;BME280;32423;45.398;10.874;2023-01-31T01:20:44;101192.72;;;5.08;57.50
46690;BME280;32423;45.398;10.874;2023-01-31T01:23:38;101198.66;;;5.10;56.89
46690;BME280;32423;45.398;10.874;2023-01-31T01:26:33;101205.19;;;5.50;56.42
46690;BME280;32423;45.398;10.874;2023-01-31T01:29:27;101200.84;;;5.79;55.56
46690;BME280;32423;45.398;10.874;2023-01-31T01:32:19;101200.59;;;5.71;55.08
46690;BME280;32423;45.398;10.874;2023-01-31T01:35:14;101199.78;;;5.80;55.59
46690;BME280;32423;45.398;10.874;2023-01-31T01:38:09;101214.34;;;5.89;55.10
46690;BME280;32423;45.398;10.874;2023-01-31T01:41:05;101204.34;;;6.05;55.00
46690;BME280;32423;45.398;10.874;2023-01-31T01:44:00;101202.69;;;6.29;54.83
46690;BME280;32423;45.398;10.874;2023-01-31T01:46:55;101200.03;;;6.14;53.67
46690;BME280;32423;45.398;10.874;2023-01-31T01:49:50;101202.22;;;5.72;54.95
46690;BME280;32423;45.398;10.874;2023-01-31T01:52:57;101203.56;;;5.59;54.97
46690;BME280;32423;45.398;10.874;2023-01-31T01:55:55;101209.50;;;5.46;55.04
46690;BME280;32423;45.398;10.874;2023-01-31T01:59:10;101208.44;;;5.97;54.51
46690;BME280;32423;45.398;10.874;2023-01-31T02:02:06;101198.16;;;5.74;55.07
46690;BME280;32423;45.398;10.874;2023-01-31T02:05:00;101204.91;;;5.36;55.32
46690;BME280;32423;45.398;10.874;2023-01-31T02:07:53;101204.59;;;5.02;55.84
46690;BME280;32423;45.398;10.874;2023-01-31T02:10:59;101214.19;;;4.78;57.70
46690;BME280;32423;45.398;10.874;2023-01-31T02:13:59;101221.56;;;5.08;56.43
46690;BME280;32423;45.398;10.874;2023-01-31T02:16:56;101224.31;;;5.28;55.73
46690;BME280;32423;45.398;10.874;2023-01-31T02:24:19;101237.53;;;5.60;53.26
46690;BME280;32423;45.398;10.874;2023-01-31T02:33:25;101217.28;;;5.22;55.80
46690;BME280;32423;45.398;10.874;2023-01-31T02:39:40;101213.44;;;4.98;55.93
46690;BME280;32423;45.398;10.874;2023-01-31T02:42:59;101219.97;;;5.12;56.66
46690;BME280;32423;45.398;10.874;2023-01-31T02:46:10;101212.63;;;4.87;58.66
46690;BME280;32423;45.398;10.874;2023-01-31T02:49:40;101222.03;;;4.80;57.55
46690;BME280;32423;45.398;10.874;2023-01-31T02:53:05;101219.88;;;4.82;57.77
46690;BME280;32423;45.398;10.874;2023-01-31T02:56:07;101221.22;;;4.79;58.75
46690;BME280;32423;45.398;10.874;2023-01-31T02:59:15;101228.00;;;4.87;58.13
46690;BME280;32423;45.398;10.874;2023-01-31T03:02:11;101234.44;;;4.86;58.47
46690;BME280;32423;45.398;10.874;2023-01-31T03:05:04;101235.03;;;5.13;59.13
46690;BME280;32423;45.398;10.874;2023-01-31T03:07:59;101230.78;;;5.22;58.22
46690;BME280;32423;45.398;10.874;2023-01-31T03:11:00;101232.81;;;4.80;59.79
46690;BME280;32423;45.398;10.874;2023-01-31T03:14:14;101236.63;;;4.99;59.62
46690;BME280;32423;45.398;10.874;2023-01-31T03:23:21;101260.91;;;5.09;59.28
46690;BME280;32423;45.398;10.874;2023-01-31T03:26:17;101267.19;;;5.35;59.07
46690;BME280;32423;45.398;10.874;2023-01-31T03:29:15;101265.97;;;4.90;58.97
46690;BME280;32423;45.398;10.874;2023-01-31T03:32:20;101254.97;;;4.40;61.14
46690;BME280;32423;45.398;10.874;2023-01-31T03:35:16;101258.88;;;4.69;59.15
46690;BME280;32423;45.398;10.874;2023-01-31T03:38:12;101261.50;;;5.26;59.02
46690;BME280;32423;45.398;10.874;2023-01-31T03:41:09;101271.56;;;5.66;57.98
46690;BME280;32423;45.398;10.874;2023-01-31T03:44:42;101274.19;;;5.36;59.12
46690;BME280;32423;45.398;10.874;2023-01-31T03:47:40;101267.16;;;5.25;59.57
46690;BME280;32423;45.398;10.874;2023-01-31T03:50:37;101265.59;;;5.49;59.74
46690;BME280;32423;45.398;10.874;2023-01-31T03:53:40;101259.38;;;5.23;62.64
46690;BME280;32423;45.398;10.874;2023-01-31T03:56:41;101264.81;;;5.48;60.25
46690;BME280;32423;45.398;10.874;2023-01-31T03:59:35;101268.22;;;5.18;62.92
46690;BME280;32423;45.398;10.874;2023-01-31T04:02:37;101271.94;;;4.97;64.18
46690;BME280;32423;45.398;10.874;2023-01-31T04:05:32;101259.25;;;4.98;64.14
46690;BME280;32423;45.398;10.874;2023-01-31T04:08:26;101259.25;;;4.98;65.01
46690;BME280;32423;45.398;10.874;2023-01-31T04:11:26;101269.78;;;4.99;65.42
46690;BME280;32423;45.398;10.874;2023-01-31T04:14:16;101271.72;;;5.14;64.72
46690;BME280;32423;45.398;10.874;2023-01-31T04:17:11;101264.19;;;5.16;65.16
46690;BME280;32423;45.398;10.874;2023-01-31T04:20:07;101262.78;;;4.98;66.46
46690;BME280;32423;45.398;10.874;2023-01-31T04:22:59;101259.00;;;4.99;65.56
46690;BME280;32423;45.398;10.874;2023-01-31T04:25:53;101259.06;;;5.20;63.00
46690;BME280;32423;45.398;10.874;2023-01-31T04:28:48;101258.53;;;5.18;63.01
46690;BME280;32423;45.398;10.874;2023-01-31T04:31:42;101253.41;;;5.16;63.96
46690;BME280;32423;45.398;10.874;2023-01-31T04:34:37;101257.03;;;4.80;65.89
46690;BME280;32423;45.398;10.874;2023-01-31T04:37:31;101260.31;;;4.82;66.31
46690;BME280;32423;45.398;10.874;2023-01-31T04:40:26;101270.94;;;5.29;64.63
46690;BME280;32423;45.398;10.874;2023-01-31T04:43:21;101278.13;;;5.03;63.35
46690;BME280;32423;45.398;10.874;2023-01-31T04:46:15;101266.47;;;4.77;63.69
46690;BME280;32423;45.398;10.874;2023-01-31T04:49:10;101262.88;;;5.39;62.71
46690;BME280;32423;45.398;10.874;2023-01-31T04:52:04;101269.78;;;4.99;64.76
46690;BME280;32423;45.398;10.874;2023-01-31T04:54:59;101278.09;;;4.93;64.58
46690;BME280;32423;45.398;10.874;2023-01-31T04:57:54;101282.22;;;5.10;64.38
46690;BME280;32423;45.398;10.874;2023-01-31T05:00:48;101276.88;;;5.26;62.19
46690;BME280;32423;45.398;10.874;2023-01-31T05:03:43;101281.72;;;5.24;61.15
46690;BME280;32423;45.398;10.874;2023-01-31T05:06:37;101277.03;;;4.94;64.29
46690;BME280;32423;45.398;10.874;2023-01-31T05:09:32;101269.72;;;4.79;64.88
46690;BME280;32423;45.398;10.874;2023-01-31T05:12:24;101269.16;;;4.72;65.08
46690;BME280;32423;45.398;10.874;2023-01-31T05:15:18;101270.28;;;4.86;63.41
46690;BME280;32423;45.398;10.874;2023-01-31T05:18:11;101280.66;;;5.30;61.31
46690;BME280;32423;45.398;10.874;2023-01-31T05:21:00;101286.38;;;5.43;60.27
46690;BME280;32423;45.398;10.874;2023-01-31T05:23:55;101283.38;;;5.40;61.53
46690;BME280;32423;45.398;10.874;2023-01-31T05:26:48;101283.09;;;5.36;61.75
46690;BME280;32423;45.398;10.874;2023-01-31T05:29:39;101283.56;;;5.13;63.43
46690;BME280;32423;45.398;10.874;2023-01-31T05:32:34;101281.19;;;5.22;62.02
46690;BME280;32423;45.398;10.874;2023-01-31T05:35:30;101282.75;;;5.07;61.79
46690;BME280;32423;45.398;10.874;2023-01-31T05:38:24;101278.50;;;5.32;60.85
46690;BME280;32423;45.398;10.874;2023-01-31T05:41:16;101276.28;;;5.13;62.41
46690;BME280;32423;45.398;10.874;2023-01-31T05:44:11;101271.47;;;5.21;62.14
46690;BME280;32423;45.398;10.874;2023-01-31T05:47:03;101282.53;;;5.29;60.93
46690;BME280;32423;45.398;10.874;2023-01-31T05:49:58;101296.28;;;5.18;61.23
46690;BME280;32423;45.398;10.874;2023-01-31T05:52:56;101297.13;;;5.28;60.38
46690;BME280;32423;45.398;10.874;2023-01-31T05:55:50;101292.50;;;5.24;61.04
46690;BME280;32423;45.398;10.874;2023-01-31T05:58:45;101297.72;;;4.78;61.44
46690;BME280;32423;45.398;10.874;2023-01-31T06:01:41;101297.47;;;4.85;62.17
46690;BME280;32423;45.398;10.874;2023-01-31T06:04:36;101310.25;;;5.14;61.63
46690;BME280;32423;45.398;10.874;2023-01-31T06:07:30;101309.13;;;5.00;61.53
46690;BME280;32423;45.398;10.874;2023-01-31T06:10:25;101312.34;;;4.92;60.86
46690;BME280;32423;45.398;10.874;2023-01-31T06:13:19;101317.00;;;5.12;61.96
46690;BME280;32423;45.398;10.874;2023-01-31T06:16:14;101331.94;;;5.45;61.81
46690;BME280;32423;45.398;10.874;2023-01-31T06:19:06;101344.97;;;4.96;62.49
46690;BME280;32423;45.398;10.874;2023-01-31T06:21:58;101329.41;;;4.56;64.78
46690;BME280;32423;45.398;10.874;2023-01-31T06:24:50;101330.31;;;4.35;66.18
46690;BME280;32423;45.398;10.874;2023-01-31T06:27:42;101333.59;;;4.37;66.29
46690;BME280;32423;45.398;10.874;2023-01-31T06:30:35;101339.56;;;4.49;65.45
46690;BME280;32423;45.398;10.874;2023-01-31T06:33:27;101350.03;;;4.82;64.28
46690;BME280;32423;45.398;10.874;2023-01-31T06:36:18;101360.25;;;4.85;62.79
46690;BME280;32423;45.398;10.874;2023-01-31T06:39:08;101372.31;;;4.72;63.70
46690;BME280;32423;45.398;10.874;2023-01-31T06:42:01;101369.50;;;4.99;61.28
46690;BME280;32423;45.398;10.874;2023-01-31T06:44:51;101374.75;;;5.26;59.54
46690;BME280;32423;45.398;10.874;2023-01-31T06:47:43;101372.69;;;5.53;58.08
46690;BME280;32423;45.398;10.874;2023-01-31T06:50:30;101374.22;;;4.72;60.04
46690;BME280;32423;45.398;10.874;2023-01-31T06:53:22;101385.25;;;4.70;61.56
46690;BME280;32423;45.398;10.874;2023-01-31T06:56:14;101386.06;;;5.23;60.12
46690;BME280;32423;45.398;10.874;2023-01-31T06:59:06;101388.03;;;5.43;61.00
46690;BME280;32423;45.398;10.874;2023-01-31T07:02:00;101388.94;;;5.06;59.85
46690;BME280;32423;45.398;10.874;2023-01-31T07:04:50;101391.63;;;5.01;60.68
46690;BME280;32423;45.398;10.874;2023-01-31T07:07:42;101389.94;;;5.47;58.44
46690;BME280;32423;45.398;10.874;2023-01-31T07:10:34;101394.31;;;5.69;57.66
46690;BME280;32423;45.398;10.874;2023-01-31T07:13:24;101396.75;;;5.70;57.62
46690;BME280;32423;45.398;10.874;2023-01-31T07:16:15;101402.06;;;5.45;58.17
46690;BME280;32423;45.398;10.874;2023-01-31T07:19:05;101400.72;;;5.42;58.75
46690;BME280;32423;45.398;10.874;2023-01-31T07:21:57;101396.41;;;4.94;60.45
46690;BME280;32423;45.398;10.874;2023-01-31T07:24:49;101404.63;;;5.14;60.30
46690;BME280;32423;45.398;10.874;2023-01-31T07:27:41;101401.16;;;5.24;60.11
46690;BME280;32423;45.398;10.874;2023-01-31T07:30:33;101399.72;;;5.01;60.73
46690;BME280;32423;45.398;10.874;2023-01-31T07:33:25;101398.75;;;5.28;60.84
46690;BME280;32423;45.398;10.874;2023-01-31T07:36:15;101407.25;;;5.04;62.27
46690;BME280;32423;45.398;10.874;2023-01-31T07:39:08;101399.44;;;5.08;62.67
46690;BME280;32423;45.398;10.874;2023-01-31T07:41:59;101407.78;;;5.01;62.82
46690;BME280;32423;45.398;10.874;2023-01-31T07:44:51;101408.25;;;4.93;62.78
46690;BME280;32423;45.398;10.874;2023-01-31T07:47:43;101406.69;;;4.97;62.85
46690;BME280;32423;45.398;10.874;2023-01-31T07:50:35;101409.28;;;6.32;78.83
46690;BME280;32423;45.398;10.874;2023-01-31T07:53:27;101409.81;;;7.59;76.95
46690;BME280;32423;45.398;10.874;2023-01-31T07:56:17;101406.88;;;8.38;72.80
46690;BME280;32423;45.398;10.874;2023-01-31T07:59:10;101410.78;;;8.61;68.77
46690;BME280;32423;45.398;10.874;2023-01-31T08:01:59;101408.63;;;8.87;65.16
46690;BME280;32423;45.398;10.874;2023-01-31T08:05:08;101414.13;;;9.72;61.63
46690;BME280;32423;45.398;10.874;2023-01-31T08:07:57;101418.25;;;10.44;58.29
46690;BME280;32423;45.398;10.874;2023-01-31T08:10:58;101423.06;;;9.06;52.22
46690;BME280;32423;45.398;10.874;2023-01-31T08:13:50;101426.66;;;9.49;54.72
46690;BME280;32423;45.398;10.874;2023-01-31T08:16:42;101428.13;;;8.21;54.68
46690;BME280;32423;45.398;10.874;2023-01-31T08:19:31;101418.78;;;7.54;56.22
46690;BME280;32423;45.398;10.874;2023-01-31T08:22:23;101422.03;;;7.56;56.22
46690;BME280;32423;45.398;10.874;2023-01-31T08:25:15;101422.41;;;7.19;57.41
46690;BME280;32423;45.398;10.874;2023-01-31T08:28:07;101422.69;;;7.18;58.73
46690;BME280;32423;45.398;10.874;2023-01-31T08:30:59;101433.28;;;7.04;58.28
46690;BME280;32423;45.398;10.874;2023-01-31T08:33:49;101435.19;;;6.94;59.35
46690;BME280;32423;45.398;10.874;2023-01-31T08:36:41;101441.91;;;7.06;59.59
46690;BME280;32423;45.398;10.874;2023-01-31T08:39:33;101448.13;;;7.02;59.23
46690;BME280;32423;45.398;10.874;2023-01-31T08:42:20;101450.50;;;7.34;58.92
46690;BME280;32423;45.398;10.874;2023-01-31T08:45:12;101453.50;;;7.17;59.81
46690;BME280;32423;45.398;10.874;2023-01-31T08:47:59;101447.50;;;7.45;61.73
46690;BME280;32423;45.398;10.874;2023-01-31T08:50:48;101450.78;;;7.27;62.03
46690;BME280;32423;45.398;10.874;2023-01-31T08:53:41;101450.13;;;7.65;64.51
46690;BME280;32423;45.398;10.874;2023-01-31T08:56:30;101452.09;;;7.99;59.56
46690;BME280;32423;45.398;10.874;2023-01-31T08:59:17;101455.06;;;7.43;61.61
46690;BME280;32423;45.398;10.874;2023-01-31T09:02:09;101457.28;;;7.31;63.25
46690;BME280;32423;45.398;10.874;2023-01-31T09:05:02;101462.13;;;7.34;63.13
46690;BME280;32423;45.398;10.874;2023-01-31T09:07:54;101463.72;;;7.45;63.14
46690;BME280;32423;45.398;10.874;2023-01-31T09:10:49;101461.44;;;8.66;64.90
46690;BME280;32423;45.398;10.874;2023-01-31T09:13:39;101457.13;;;10.45;58.71
46690;BME280;32423;45.398;10.874;2023-01-31T09:16:31;101457.38;;;10.94;56.64
46690;BME280;32423;45.398;10.874;2023-01-31T09:19:20;101463.47;;;11.19;55.22
46690;BME280;32423;45.398;10.874;2023-01-31T09:22:11;101469.22;;;11.58;53.88
46690;BME280;32423;45.398;10.874;2023-01-31T09:25:01;101456.03;;;10.08;52.21
46690;BME280;32423;45.398;10.874;2023-01-31T09:27:51;101463.16;;;9.62;55.40
46690;BME280;32423;45.398;10.874;2023-01-31T09:30:41;101458.50;;;9.43;55.26
46690;BME280;32423;45.398;10.874;2023-01-31T09:33:29;101459.22;;;9.73;56.78
46690;BME280;32423;45.398;10.874;2023-01-31T09:36:20;101457.88;;;10.32;56.35
46690;BME280;32423;45.398;10.874;2023-01-31T09:39:10;101453.56;;;10.31;55.00
46690;BME280;32423;45.398;10.874;2023-01-31T09:42:00;101456.22;;;10.12;54.97
46690;BME280;32423;45.398;10.874;2023-01-31T09:44:57;101454.41;;;10.07;54.45
46690;BME280;32423;45.398;10.874;2023-01-31T09:47:50;101462.66;;;10.72;54.48
46690;BME280;32423;45.398;10.874;2023-01-31T09:50:43;101454.66;;;10.62;53.85
46690;BME280;32423;45.398;10.874;2023-01-31T09:53:37;101452.50;;;10.26;55.69
46690;BME280;32423;45.398;10.874;2023-01-31T09:59:33;101456.53;;;11.67;53.47
46690;BME280;32423;45.398;10.874;2023-01-31T10:11:01;101457.13;;;12.27;50.01
46690;BME280;32423;45.398;10.874;2023-01-31T10:13:53;101463.00;;;12.21;50.05
46690;BME280;32423;45.398;10.874;2023-01-31T10:16:54;101458.69;;;12.42;49.44
46690;BME280;32423;45.398;10.874;2023-01-31T10:22:50;101471.50;;;13.39;48.60
46690;BME280;32423;45.398;10.874;2023-01-31T10:31:32;101464.34;;;13.60;47.46
46690;BME280;32423;45.398;10.874;2023-01-31T10:34:26;101467.41;;;13.67;46.93
46690;BME280;32423;45.398;10.874;2023-01-31T10:40:22;101452.34;;;13.79;46.59
46690;BME280;32423;45.398;10.874;2023-01-31T10:43:17;101453.97;;;13.97;46.01
46690;BME280;32423;45.398;10.874;2023-01-31T10:46:11;101443.38;;;13.95;45.95
46690;BME280;32423;45.398;10.874;2023-01-31T10:49:04;101436.59;;;13.93;45.80
46690;BME280;32423;45.398;10.874;2023-01-31T10:52:03;101446.09;;;14.04;44.94
46690;BME280;32423;45.398;10.874;2023-01-31T10:55:08;101435.47;;;13.85;45.26
46690;BME280;32423;45.398;10.874;2023-01-31T10:58:06;101438.22;;;13.94;44.82
46690;BME280;32423;45.398;10.874;2023-01-31T11:01:02;101435.63;;;13.89;44.76
46690;BME280;32423;45.398;10.874;2023-01-31T11:03:54;101435.31;;;14.07;44.43
46690;BME280;32423;45.398;10.874;2023-01-31T11:06:44;101424.69;;;13.89;44.68
46690;BME280;32423;45.398;10.874;2023-01-31T11:09:36;101430.16;;;13.80;44.98
46690;BME280;32423;45.398;10.874;2023-01-31T11:12:50;101429.69;;;14.04;44.70
46690;BME280;32423;45.398;10.874;2023-01-31T11:15:43;101426.47;;;14.19;44.45
46690;BME280;32423;45.398;10.874;2023-01-31T11:18:38;101431.16;;;14.27;44.10
46690;BME280;32423;45.398;10.874;2023-01-31T11:21:33;101415.69;;;14.14;44.39
46690;BME280;32423;45.398;10.874;2023-01-31T11:24:26;101419.56;;;14.39;42.18
46690;BME280;32423;45.398;10.874;2023-01-31T11:27:21;101412.00;;;14.27;41.75
46690;BME280;32423;45.398;10.874;2023-01-31T11:30:18;101406.03;;;13.91;41.73
46690;BME280;32423;45.398;10.874;2023-01-31T11:33:09;101409.59;;;13.91;44.25
46690;BME280;32423;45.398;10.874;2023-01-31T11:36:18;101407.00;;;14.12;42.98
46690;BME280;32423;45.398;10.874;2023-01-31T11:39:27;101405.56;;;13.80;44.33
46690;BME280;32423;45.398;10.874;2023-01-31T11:42:17;101404.13;;;14.08;44.36
46690;BME280;32423;45.398;10.874;2023-01-31T11:45:15;101407.94;;;13.64;42.35
46690;BME280;32423;45.398;10.874;2023-01-31T11:48:06;101405.94;;;13.39;43.50
46690;BME280;32423;45.398;10.874;2023-01-31T11:51:00;101405.00;;;13.52;42.20
46690;BME280;32423;45.398;10.874;2023-01-31T11:53:53;101398.34;;;13.27;40.88
46690;BME280;32423;45.398;10.874;2023-01-31T11:56:47;101401.13;;;11.72;43.54
46690;BME280;32423;45.398;10.874;2023-01-31T11:59:39;101399.94;;;11.50;45.13
46690;BME280;32423;45.398;10.874;2023-01-31T12:02:34;101398.13;;;11.46;43.23
46690;BME280;32423;45.398;10.874;2023-01-31T12:05:29;101396.03;;;11.15;44.26
46690;BME280;32423;45.398;10.874;2023-01-31T12:08:31;101395.72;;;11.03;44.94
46690;BME280;32423;45.398;10.874;2023-01-31T12:11:34;101400.97;;;11.13;44.54
46690;BME280;32423;45.398;10.874;2023-01-31T12:14:23;101394.09;;;11.02;44.09
46690;BME280;32423;45.398;10.874;2023-01-31T12:17:16;101390.34;;;10.85;44.18
46690;BME280;32423;45.398;10.874;2023-01-31T12:20:09;101388.25;;;10.95;44.05
46690;BME280;32423;45.398;10.874;2023-01-31T12:23:15;101381.09;;;11.13;44.29
46690;BME280;32423;45.398;10.874;2023-01-31T12:26:21;101376.78;;;11.12;43.83
46690;BME280;32423;45.398;10.874;2023-01-31T12:29:18;101374.16;;;11.21;44.49
46690;BME280;32423;45.398;10.874;2023-01-31T12:41:03;101348.44;;;11.27;41.81
46690;BME280;32423;45.398;10.874;2023-01-31T12:44:03;101349.16;;;11.32;42.02
46690;BME280;32423;45.398;10.874;2023-01-31T12:47:19;101352.16;;;11.31;42.11
46690;BME280;32423;45.398;10.874;2023-01-31T12:50:27;101338.81;;;11.43;41.02
46690;BME280;32423;45.398;10.874;2023-01-31T12:56:21;101339.97;;;11.64;40.75
46690;BME280;32423;45.398;10.874;2023-01-31T12:59:19;101338.97;;;11.74;41.88
46690;BME280;32423;45.398;10.874;2023-01-31T13:02:26;101332.50;;;11.83;40.88
46690;BME280;32423;45.398;10.874;2023-01-31T13:05:23;101330.03;;;11.95;41.93
46690;BME280;32423;45.398;10.874;2023-01-31T13:08:19;101328.50;;;12.03;41.50
46690;BME280;32423;45.398;10.874;2023-01-31T13:11:21;101319.44;;;12.16;42.07
46690;BME280;32423;45.398;10.874;2023-01-31T13:14:14;101319.16;;;12.26;42.34
46690;BME280;32423;45.398;10.874;2023-01-31T13:17:06;101323.09;;;12.34;41.31
46690;BME280;32423;45.398;10.874;2023-01-31T13:20:03;101310.06;;;12.31;40.54
46690;BME280;32423;45.398;10.874;2023-01-31T13:23:07;101309.50;;;12.42;41.18
46690;BME280;32423;45.398;10.874;2023-01-31T13:26:05;101307.03;;;12.32;40.99
46690;BME280;32423;45.398;10.874;2023-01-31T13:34:56;101289.13;;;12.18;39.10
46690;BME280;32423;45.398;10.874;2023-01-31T13:37:49;101286.88;;;12.20;37.71
46690;BME280;32423;45.398;10.874;2023-01-31T13:40:47;101281.69;;;12.10;39.40
46690;BME280;32423;45.398;10.874;2023-01-31T13:43:40;101291.72;;;12.23;37.80
46690;BME280;32423;45.398;10.874;2023-01-31T13:46:35;101295.75;;;12.25;38.47
46690;BME280;32423;45.398;10.874;2023-01-31T13:50:12;101291.25;;;12.29;39.13
46690;BME280;32423;45.398;10.874;2023-01-31T13:52:51;101287.00;;;12.37;37.92
46690;BME280;32423;45.398;10.874;2023-01-31T13:55:42;101282.78;;;12.31;38.32
46690;BME280;32423;45.398;10.874;2023-01-31T13:58:33;101284.00;;;12.47;38.45
46690;BME280;32423;45.398;10.874;2023-01-31T14:01:23;101273.44;;;12.54;38.19
46690;BME280;32423;45.398;10.874;2023-01-31T14:12:49;101289.88;;;12.80;35.40
46690;BME280;32423;45.398;10.874;2023-01-31T14:15:54;101289.25;;;12.74;34.38
46690;BME280;32423;45.398;10.874;2023-01-31T14:18:47;101275.31;;;12.84;36.10
46690;BME280;32423;45.398;10.874;2023-01-31T14:27:42;101283.59;;;12.62;35.83
46690;BME280;32423;45.398;10.874;2023-01-31T14:30:34;101279.38;;;12.56;36.00
46690;BME280;32423;45.398;10.874;2023-01-31T14:33:24;101270.84;;;12.49;35.10
46690;BME280;32423;45.398;10.874;2023-01-31T14:36:18;101269.81;;;12.67;35.44
46690;BME280;32423;45.398;10.874;2023-01-31T14:45:15;101251.38;;;12.81;36.21
46690;BME280;32423;45.398;10.874;2023-01-31T14:48:14;101254.25;;;12.76;36.61
46690;BME280;32423;45.398;10.874;2023-01-31T14:51:25;101258.47;;;12.91;37.32
46690;BME280;32423;45.398;10.874;2023-01-31T14:54:31;101266.06;;;13.03;37.65
46690;BME280;32423;45.398;10.874;2023-01-31T15:00:21;101265.38;;;12.89;35.98
46690;BME280;32423;45.398;10.874;2023-01-31T15:03:18;101261.03;;;12.96;35.82
46690;BME280;32423;45.398;10.874;2023-01-31T15:06:14;101260.88;;;12.93;35.61
46690;BME280;32423;45.398;10.874;2023-01-31T15:12:50;101260.06;;;12.83;35.95
46690;BME280;32423;45.398;10.874;2023-01-31T15:15:30;101259.91;;;12.89;35.58
46690;BME280;32423;45.398;10.874;2023-01-31T15:18:21;101243.19;;;12.90;36.87
46690;BME280;32423;45.398;10.874;2023-01-31T15:21:15;101261.69;;;12.93;38.27
46690;BME280;32423;45.398;10.874;2023-01-31T15:24:11;101255.88;;;12.86;38.44
46690;BME280;32423;45.398;10.874;2023-01-31T15:27:23;101264.56;;;12.88;38.22
46690;BME280;32423;45.398;10.874;2023-01-31T15:30:19;101263.25;;;12.77;38.12
46690;BME280;32423;45.398;10.874;2023-01-31T15:36:23;101265.59;;;12.61;38.20
46690;BME280;32423;45.398;10.874;2023-01-31T15:39:17;101256.94;;;12.59;38.79
46690;BME280;32423;45.398;10.874;2023-01-31T15:42:24;101254.34;;;12.54;38.22
46690;BME280;32423;45.398;10.874;2023-01-31T15:48:13;101251.22;;;12.38;41.13
46690;BME280;32423;45.398;10.874;2023-01-31T15:51:08;101263.81;;;12.26;41.88
46690;BME280;32423;45.398;10.874;2023-01-31T15:54:05;101267.66;;;12.25;43.39
46690;BME280;32423;45.398;10.874;2023-01-31T15:56:57;101264.78;;;11.99;44.77
46690;BME280;32423;45.398;10.874;2023-01-31T15:59:49;101274.34;;;11.88;45.10
46690;BME280;32423;45.398;10.874;2023-01-31T16:02:38;101276.72;;;11.67;45.61
46690;BME280;32423;45.398;10.874;2023-01-31T16:05:31;101276.84;;;11.62;46.04
46690;BME280;32423;45.398;10.874;2023-01-31T16:08:30;101272.22;;;11.63;45.77
46690;BME280;32423;45.398;10.874;2023-01-31T16:11:22;101269.03;;;11.47;46.57
46690;BME280;32423;45.398;10.874;2023-01-31T16:14:12;101271.53;;;11.43;46.74
46690;BME280;32423;45.398;10.874;2023-01-31T16:17:01;101281.28;;;11.58;47.49
46690;BME280;32423;45.398;10.874;2023-01-31T16:19:48;101272.97;;;11.41;47.70
46690;BME280;32423;45.398;10.874;2023-01-31T16:22:41;101276.75;;;11.31;49.05
46690;BME280;32423;45.398;10.874;2023-01-31T16:25:45;101271.81;;;11.20;49.73
46690;BME280;32423;45.398;10.874;2023-01-31T16:28:51;101275.75;;;11.13;50.41
46690;BME280;32423;45.398;10.874;2023-01-31T16:31:46;101277.59;;;11.04;50.35
46690;BME280;32423;45.398;10.874;2023-01-31T16:34:38;101276.16;;;10.93;50.70
46690;BME280;32423;45.398;10.874;2023-01-31T16:40:21;101289.09;;;11.01;50.18
46690;BME280;32423;45.398;10.874;2023-01-31T16:46:05;101297.94;;;10.93;50.45
46690;BME280;32423;45.398;10.874;2023-01-31T16:49:04;101307.41;;;10.82;50.83
46690;BME280;32423;45.398;10.874;2023-01-31T16:55:06;101318.47;;;10.45;52.01